Archival Weather

NSFA McMurdo Sound

NSFA McMurdo Sound, Antarctica (NZCM)

Report from: Friday, September 23, 2022 10:55 PM UTC
Current time: Sunday, December 4, 2022 11:54 AM UTC

Current weather
Weather history
Weather forecast

Present weatherLight snow, freezing fog
Temperature-13.8°C (7.2°F)
Wind chill-23.4°C (-10.2°F)
Dew point-16.4°C (2.5°F)
Winds 13 kts (6.7 m/s, 15 mph) Vrb
Wind gusts 23 kts (11.8 m/s, 26.5 mph)
Winds variableWinds variable from East (80°) to Southeast (140°)
Peak wind 28 kts (14.4 m/s, 32.2 mph) Southeast (140°) at 17:00
Visibility0.2 mi. (0.4 km)
Clouds Ceiling: Vertical visibility 500 ft. (152 m)
Altimeter28.66 in.Hg (971 mB)
Precip. events Snow ended 10:30 PM
Snow began 10:50 PM
Relative humidity81 %
Density altitude-2,101 ft. (-640 m)
Sea-level pressure107.1 kPa (1071 mB, 31.64 in.Hg)
Remarks Fully automated report
System requires maintenance
Automated weather observing station with precipitation discriminator
Flight conditions Low Instrument Meteorological Conditions
Raw dataNZCM 232255Z AUTO 12013G23KT 080V140 0400 -SN FZFG VV005 M14/M16 A2866 RMK AO2 PK WND 14028/2200 SNE2230B2250 SLP713 T11381164 $
An error has occurred. This application may no longer respond until reloaded. Reload 🗙